Time;durP1;ratioP1;P1;durP2;ratioP2;P2;SDS_P1;SDS_P2;PMS_P1;PMS_P2;Temp;Humidity;BMP_temperature;BMP_pressure;BME280_temperature;BME280_humidity;BME280_pressure;Samples;Min_cycle;Max_cycle;Signal;HPM_P1;HPM_P2
2023/07/09 00:02:05;;;;;;;;;;;21.80;48.80;;;18.00;87.17;95930.38;4944479;28;20048;-45
2023/07/09 00:04:33;;;;;;;;;;;21.80;48.90;;;17.94;87.73;95922.72;4951749;28;20080;-46
2023/07/09 00:07:03;;;;;;;;;;;21.80;48.90;;;17.96;87.19;95925.91;4948046;28;20900;-46
2023/07/09 00:09:30;;;;;;;;;;;21.70;49.00;;;17.85;88.53;95925.31;4967773;28;20399;-46
2023/07/09 00:11:57;;;;;;;;;;;21.70;49.10;;;17.88;87.92;95926.63;4953425;28;20280;-47
2023/07/09 00:14:23;;;;;;;;;;;21.60;49.20;;;17.79;88.49;95923.84;4956130;28;20310;-45
2023/07/09 00:16:50;;;;;;;;;;;21.60;49.20;;;17.75;88.78;95925.50;4948571;28;19914;-48
2023/07/09 00:19:23;;;;;;;;;;;21.50;49.30;;;17.67;90.00;95921.63;4945781;28;20333;-45
2023/07/09 00:21:53;;;;;;;;;;;21.50;49.40;;;17.63;90.00;95931.41;4953485;28;19918;-49
2023/07/09 00:24:19;;;;;;;;;;;21.50;49.50;;;17.62;90.28;95929.03;4944436;28;20329;-47
2023/07/09 00:26:47;;;;;;;;;;;21.50;49.60;;;17.55;90.47;95935.63;4954731;28;19910;-45
2023/07/09 00:29:17;;;;;;;;;;;21.40;49.60;;;17.57;90.23;95941.47;4950639;28;19924;-46
2023/07/09 00:31:43;;;;;;;;;;;21.40;49.70;;;17.56;90.33;95937.19;4949703;28;19976;-48
2023/07/09 00:34:13;;;;;;;;;;;21.40;49.80;;;17.55;91.52;95934.81;4946570;28;19918;-45
2023/07/09 00:36:45;;;;;;;;;;;21.40;49.90;;;17.54;90.74;95934.00;4955840;28;19916;-44
2023/07/09 00:39:18;;;;;;;;;;;21.30;50.00;;;17.54;90.61;95934.00;4943731;28;19918;-44
2023/07/09 00:41:46;;;;;;;;;;;21.30;50.10;;;17.52;91.06;95924.66;4949073;28;19954;-47
2023/07/09 00:44:33;;;;;;;;;;;21.30;50.10;;;17.47;90.43;95936.31;4965075;28;19910;-44
2023/07/09 00:47:01;;;;;;;;;;;21.30;50.20;;;17.48;90.34;95934.41;4965798;28;19933;-46
2023/07/09 00:49:33;;;;;;;;;;;21.20;50.20;;;17.47;90.07;95930.91;4961737;28;19910;-44
2023/07/09 00:52:22;;;;;;;;;;;21.20;50.30;;;17.48;90.17;95937.09;4945432;28;20290;-45
2023/07/09 00:54:52;;;;;;;;;;;21.20;50.40;;;17.45;90.44;95943.09;4949682;28;19914;-48
2023/07/09 00:57:25;;;;;;;;;;;21.20;50.50;;;17.41;89.92;95942.88;4949413;28;19965;-44
2023/07/09 00:59:59;;;;;;;;;;;21.20;50.50;;;17.41;89.74;95942.09;4952803;28;19957;-47
2023/07/09 01:02:26;;;;;;;;;;;21.20;50.60;;;17.35;89.63;95941.38;4950082;28;19913;-45
2023/07/09 01:05:00;;;;;;;;;;;21.10;50.60;;;17.28;90.10;95947.16;4953477;28;19981;-44
2023/07/09 01:07:28;;;;;;;;;;;21.10;50.60;;;17.22;90.59;95953.75;4948231;28;19914;-49
2023/07/09 01:09:54;;;;;;;;;;;21.10;50.70;;;17.16;90.38;95948.75;4949594;28;19910;-45
2023/07/09 01:12:22;;;;;;;;;;;21.00;50.80;;;17.13;91.04;95952.03;4950651;28;19921;-44
2023/07/09 01:14:58;;;;;;;;;;;21.00;50.90;;;17.08;91.37;95951.03;4953460;28;20379;-47
2023/07/09 01:17:27;;;;;;;;;;;20.90;50.90;;;17.08;91.20;95961.00;4949466;28;19910;-44
2023/07/09 01:19:55;;;;;;;;;;;20.90;51.00;;;17.04;91.34;95951.91;4951368;28;19914;-45
2023/07/09 01:22:23;;;;;;;;;;;20.90;51.00;;;17.02;91.01;95957.63;4956828;28;20017;-44
2023/07/09 01:25:06;;;;;;;;;;;20.90;51.10;;;16.97;91.39;95957.69;4957397;28;19916;-45
2023/07/09 01:27:42;;;;;;;;;;;20.80;51.20;;;16.99;91.65;95963.59;4959169;23;19930;-47
2023/07/09 01:30:16;;;;;;;;;;;20.80;51.20;;;16.95;92.37;95962.56;4911646;29;19971;-49
2023/07/09 01:32:45;;;;;;;;;;;20.80;51.30;;;16.92;92.33;95960.47;4915975;29;19915;-46
2023/07/09 01:35:15;;;;;;;;;;;20.80;51.30;;;16.87;93.38;95957.88;4914927;29;19970;-47
2023/07/09 01:37:43;;;;;;;;;;;20.70;52.00;;;16.83;93.75;95954.19;4912780;29;19915;-46
2023/07/09 01:40:14;;;;;;;;;;;20.70;51.40;;;16.84;93.13;95961.94;4914784;29;19917;-47
2023/07/09 01:42:41;;;;;;;;;;;20.70;51.50;;;16.84;92.86;95958.47;4916179;28;19969;-47
2023/07/09 01:45:10;;;;;;;;;;;20.70;51.60;;;16.78;93.96;95955.06;4911103;29;19910;-47
2023/07/09 01:47:37;;;;;;;;;;;20.70;51.60;;;16.76;94.23;95957.22;4913369;28;19969;-52
2023/07/09 01:50:09;;;;;;;;;;;20.60;51.70;;;16.73;94.19;95951.63;4916650;29;19911;-49
2023/07/09 01:52:38;;;;;;;;;;;20.60;51.80;;;16.77;94.04;95952.66;4913486;29;19922;-48
2023/07/09 01:55:05;;;;;;;;;;;20.60;51.90;;;16.75;94.30;95954.81;4918154;29;19910;-47
2023/07/09 01:57:34;;;;;;;;;;;20.60;51.90;;;16.77;94.22;95960.75;4914041;29;19946;-49
2023/07/09 02:00:10;;;;;;;;;;;20.60;52.00;;;16.69;94.80;95951.41;4908202;29;20612;-48
2023/07/09 02:02:43;;;;;;;;;;;20.50;52.00;;;16.68;95.35;95962.47;4913852;29;19922;-45
2023/07/09 02:05:12;;;;;;;;;;;20.50;52.00;;;16.64;94.83;95955.00;4910426;29;19914;-51
2023/07/09 02:07:38;;;;;;;;;;;20.50;52.10;;;16.64;95.45;95951.50;4912557;29;19917;-47
2023/07/09 02:10:05;;;;;;;;;;;20.50;52.20;;;16.62;95.53;95954.47;4913459;28;19919;-52
2023/07/09 02:12:30;;;;;;;;;;;20.50;52.20;;;16.59;95.25;95951.56;4917177;29;19911;-47
2023/07/09 02:14:56;;;;;;;;;;;20.40;52.20;;;16.54;94.98;95948.97;4917335;29;19997;-47
2023/07/09 02:17:22;;;;;;;;;;;20.40;52.30;;;16.52;94.56;95956.53;4911094;29;19911;-48
2023/07/09 02:19:48;;;;;;;;;;;20.40;52.40;;;16.46;94.80;95955.81;4916439;29;20005;-47
2023/07/09 02:22:13;;;;;;;;;;;20.30;52.40;;;16.42;95.42;95957.47;4913891;29;20249;-47
2023/07/09 02:24:39;;;;;;;;;;;20.30;52.50;;;16.40;96.02;95962.34;4917006;29;19915;-49
2023/07/09 02:27:10;;;;;;;;;;;20.30;52.50;;;16.34;96.44;95966.22;4910635;29;19921;-50
2023/07/09 02:29:38;;;;;;;;;;;20.30;53.20;;;16.30;96.90;95968.69;4909142;28;19925;-48
2023/07/09 02:32:04;;;;;;;;;;;20.30;52.70;;;16.28;97.56;95964.69;4914080;28;19911;-46
2023/07/09 02:34:31;;;;;;;;;;;20.20;52.70;;;16.32;96.70;95969.19;4911277;29;19910;-46
2023/07/09 02:36:58;;;;;;;;;;;20.20;52.80;;;16.29;96.53;95967.06;4907980;29;19915;-43
2023/07/09 02:39:26;;;;;;;;;;;20.20;52.90;;;16.21;97.23;95962.38;4908770;29;20353;-48
2023/07/09 02:41:52;;;;;;;;;;;20.20;53.50;;;16.18;97.58;95953.00;4906913;29;20421;-47
2023/07/09 02:44:18;;;;;;;;;;;20.10;53.00;;;16.18;97.02;95960.25;4919192;29;19910;-51
2023/07/09 02:46:45;;;;;;;;;;;20.10;53.00;;;16.17;97.23;95962.16;4915473;29;19911;-50
2023/07/09 02:49:13;;;;;;;;;;;20.10;53.10;;;16.15;96.83;95960.84;4910737;29;19910;-50
2023/07/09 02:51:40;;;;;;;;;;;20.00;53.10;;;16.12;97.03;95958.72;4915071;29;20306;-46
2023/07/09 02:54:07;;;;;;;;;;;20.00;53.20;;;16.10;97.49;95968.97;4911016;29;19933;-46
2023/07/09 02:56:33;;;;;;;;;;;19.90;53.20;;;16.06;97.09;95968.75;4917522;29;19914;-47
2023/07/09 02:59:00;;;;;;;;;;;19.90;53.30;;;15.97;98.06;95970.47;4906327;29;19919;-46
2023/07/09 03:01:27;;;;;;;;;;;19.90;53.30;;;15.93;97.93;95975.63;4913389;29;20342;-45
2023/07/09 03:03:55;;;;;;;;;;;19.90;53.40;;;16.01;97.68;95973.38;4912368;29;19911;-46
2023/07/09 03:06:24;;;;;;;;;;;19.90;53.50;;;15.91;98.38;95972.44;4911966;29;19959;-49
2023/07/09 03:08:51;;;;;;;;;;;19.90;53.50;;;15.93;97.79;95980.22;4915231;28;19917;-46
2023/07/09 03:11:18;;;;;;;;;;;19.80;53.50;;;15.92;97.82;95979.41;4910235;29;19953;-44
2023/07/09 03:13:44;;;;;;;;;;;19.80;53.60;;;15.92;97.75;95981.31;4908010;29;20018;-46
2023/07/09 03:16:11;;;;;;;;;;;19.80;53.70;;;15.90;97.63;95983.47;4910883;28;19910;-45
2023/07/09 03:18:37;;;;;;;;;;;19.80;53.70;;;15.91;97.47;95985.06;4907789;29;19919;-44
2023/07/09 03:21:04;;;;;;;;;;;19.80;53.80;;;15.93;97.14;95981.00;4911253;29;19997;-48
2023/07/09 03:23:30;;;;;;;;;;;19.80;53.80;;;15.92;96.95;95982.09;4911715;29;19973;-49
2023/07/09 03:25:57;;;;;;;;;;;19.80;53.90;;;15.91;97.46;95985.88;4909878;29;19915;-44
2023/07/09 03:28:23;;;;;;;;;;;19.80;53.90;;;15.87;97.64;95990.22;4912416;28;20528;-45
2023/07/09 03:30:53;;;;;;;;;;;19.80;53.90;;;15.88;97.52;95980.28;4915769;29;19918;-48
2023/07/09 03:33:18;;;;;;;;;;;19.70;54.00;;;15.88;97.66;95983.75;4918662;29;19915;-44
2023/07/09 03:35:44;;;;;;;;;;;19.80;54.10;;;15.91;97.53;95985.88;4915231;29;19914;-46
2023/07/09 03:38:11;;;;;;;;;;;19.80;54.10;;;15.93;97.47;95997.13;4913907;29;20324;-46
2023/07/09 03:40:38;;;;;;;;;;;19.80;54.10;;;15.91;97.50;95996.59;4909897;29;19938;-48
2023/07/09 03:43:09;;;;;;;;;;;19.80;54.20;;;15.92;97.87;95992.84;4915642;29;19915;-47
2023/07/09 03:45:37;;;;;;;;;;;19.80;54.20;;;15.90;97.90;95992.34;4909774;29;19961;-46
2023/07/09 03:48:05;;;;;;;;;;;19.80;54.20;;;15.89;98.62;96000.69;4910538;29;19911;-45
2023/07/09 03:50:31;;;;;;;;;;;19.80;54.20;;;15.89;99.21;95992.63;4910139;28;19917;-47
2023/07/09 03:52:57;;;;;;;;;;;19.80;54.20;;;15.91;99.42;95996.59;4908824;29;19910;-44
2023/07/09 03:55:26;;;;;;;;;;;19.80;54.20;;;15.88;100.00;95988.34;4913683;29;20309;-47
2023/07/09 03:58:02;;;;;;;;;;;19.90;54.30;;;15.92;100.00;96000.13;5052134;28;19912;-47
2023/07/09 04:00:28;;;;;;;;;;;19.80;54.20;;;15.95;99.46;96000.34;5024918;28;20984;-48
2023/07/09 04:02:56;;;;;;;;;;;19.80;54.30;;;15.95;99.07;95997.66;5028288;28;19920;-46
2023/07/09 04:05:23;;;;;;;;;;;19.90;54.30;;;15.94;99.26;95997.91;5025671;28;20321;-45
2023/07/09 04:07:49;;;;;;;;;;;19.80;54.40;;;15.93;99.68;96001.72;5027205;28;20270;-47
2023/07/09 04:10:16;;;;;;;;;;;19.90;54.40;;;15.93;99.78;96005.19;5031248;28;19934;-46
2023/07/09 04:12:42;;;;;;;;;;;19.80;54.50;;;15.95;99.76;95997.66;5028085;28;20386;-48
2023/07/09 04:15:09;;;;;;;;;;;19.90;54.60;;;15.96;100.00;95996.56;5024265;28;20294;-47
2023/07/09 04:17:35;;;;;;;;;;;19.90;54.60;;;15.99;100.00;96002.44;5026071;28;20350;-47
2023/07/09 04:20:05;;;;;;;;;;;19.90;54.70;;;16.00;99.95;95998.66;5026111;28;20294;-48
2023/07/09 04:22:32;;;;;;;;;;;19.90;54.70;;;16.12;99.81;96007.91;5018611;28;19986;-45
2023/07/09 04:24:58;;;;;;;;;;;20.00;54.70;;;16.24;98.93;96009.38;5027603;28;19956;-46
2023/07/09 04:27:27;;;;;;;;;;;20.00;54.80;;;16.30;98.22;96010.91;5033286;28;20349;-47
2023/07/09 04:29:54;;;;;;;;;;;20.10;54.80;;;16.38;97.76;96008.34;5027900;28;19909;-45
2023/07/09 04:32:21;;;;;;;;;;;20.20;54.80;;;16.56;97.84;96014.00;5025517;28;19909;-48
2023/07/09 04:34:47;;;;;;;;;;;20.20;54.80;;;16.77;96.88;96007.25;5026771;28;19956;-49
2023/07/09 04:37:17;;;;;;;;;;;20.40;54.70;;;17.02;96.01;96018.72;5027480;28;20047;-45
2023/07/09 04:39:44;;;;;;;;;;;20.50;54.70;;;17.24;94.66;96020.75;5025812;28;20386;-46
2023/07/09 04:42:16;;;;;;;;;;;20.70;54.70;;;17.48;93.86;96017.88;5024988;28;20283;-46
2023/07/09 04:44:44;;;;;;;;;;;20.80;54.60;;;17.74;92.86;96018.22;5021584;28;19924;-48
2023/07/09 04:47:11;;;;;;;;;;;21.00;54.60;;;17.98;91.81;96010.72;5019421;28;20287;-48
2023/07/09 04:49:37;;;;;;;;;;;21.20;54.40;;;18.21;90.95;96016.22;5026075;28;19951;-46
2023/07/09 04:52:03;;;;;;;;;;;21.50;54.40;;;18.39;90.39;96017.94;5024777;28;20585;-50
2023/07/09 04:54:30;;;;;;;;;;;21.60;54.20;;;18.46;89.72;96017.56;5023719;28;19912;-46
2023/07/09 04:56:56;;;;;;;;;;;21.90;54.10;;;18.57;89.45;96016.22;5027733;28;19995;-47
2023/07/09 04:59:23;;;;;;;;;;;22.10;54.00;;;18.73;89.01;96006.69;5024747;28;19909;-48
2023/07/09 05:01:49;;;;;;;;;;;22.30;53.80;;;18.95;87.12;96018.59;5029095;28;19908;-45
2023/07/09 05:04:15;;;;;;;;;;;22.50;53.70;;;19.10;85.67;96018.22;5024121;28;19937;-50
2023/07/09 05:06:41;;;;;;;;;;;22.70;53.60;;;19.42;85.71;96016.31;5031545;28;20426;-45
2023/07/09 05:09:07;;;;;;;;;;;23.00;53.40;;;19.74;83.58;96014.44;5013275;28;19917;-47
2023/07/09 05:11:36;;;;;;;;;;;23.20;53.30;;;20.03;82.61;96016.59;5013943;28;19924;-47
2023/07/09 05:14:02;;;;;;;;;;;23.40;53.10;;;20.33;82.38;96015.69;5007404;28;19917;-47
2023/07/09 05:16:29;;;;;;;;;;;23.80;53.00;;;20.60;80.81;96019.25;5012226;28;19913;-48
2023/07/09 05:18:55;;;;;;;;;;;24.00;52.80;;;20.89;80.77;96025.94;5013884;28;19912;-46
2023/07/09 05:21:21;;;;;;;;;;;24.30;52.60;;;21.06;78.30;96017.81;5010437;28;19920;-49
2023/07/09 05:23:46;;;;;;;;;;;24.60;52.40;;;21.29;78.87;96018.41;5011977;28;19920;-48
2023/07/09 05:26:12;;;;;;;;;;;24.90;52.20;;;21.56;77.12;96017.25;5009757;28;20006;-47
2023/07/09 05:28:38;;;;;;;;;;;25.10;52.00;;;21.81;73.31;96026.41;5018295;28;19909;-47
2023/07/09 05:31:07;;;;;;;;;;;25.50;51.80;;;22.06;72.28;96026.56;5009976;28;19976;-48
2023/07/09 05:33:32;;;;;;;;;;;25.80;51.60;;;22.32;70.09;96023.75;5005867;28;20228;-47
2023/07/09 05:35:58;;;;;;;;;;;26.10;51.30;;;22.56;69.98;96028.53;5013552;28;19967;-50
2023/07/09 05:38:24;;;;;;;;;;;26.40;51.10;;;22.80;68.82;96031.38;5012282;28;19913;-49
2023/07/09 05:41:03;;;;;;;;;;;26.80;50.80;;;23.08;70.21;96036.28;5010957;28;19966;-48
2023/07/09 05:43:29;;;;;;;;;;;27.10;50.50;;;23.37;67.54;96035.34;5014009;28;19909;-48
2023/07/09 05:45:55;;;;;;;;;;;27.40;50.20;;;23.55;64.98;96035.97;5013437;28;19921;-46
2023/07/09 05:48:21;;;;;;;;;;;27.80;50.00;;;23.80;63.15;96036.06;5010218;28;20010;-51
2023/07/09 05:50:52;;;;;;;;;;;28.00;49.50;;;24.04;61.09;96029.81;5017883;28;19913;-45
2023/07/09 05:53:18;;;;;;;;;;;28.30;49.20;;;24.30;60.84;96032.19;5008265;28;19920;-47
2023/07/09 05:55:43;;;;;;;;;;;28.70;49.00;;;24.53;59.82;96030.59;5008138;28;20387;-48
2023/07/09 05:58:09;;;;;;;;;;;28.90;48.50;;;24.79;58.69;96037.56;5009714;28;19912;-47
2023/07/09 06:00:37;;;;;;;;;;;29.20;48.30;;;25.10;58.21;96026.00;4956005;28;20314;-47
2023/07/09 06:03:07;;;;;;;;;;;29.50;48.00;;;25.28;56.09;96027.31;5011936;28;19962;-49
2023/07/09 06:05:33;;;;;;;;;;;29.80;47.60;;;25.50;51.88;96023.22;5007518;28;19908;-49
2023/07/09 06:08:00;;;;;;;;;;;30.10;47.20;;;25.69;55.86;96025.25;5009750;28;19948;-48
2023/07/09 06:10:26;;;;;;;;;;;30.40;46.80;;;25.89;54.66;96026.19;5008401;28;19913;-50
2023/07/09 06:12:52;;;;;;;;;;;30.70;47.10;;;26.14;54.91;96032.25;5011964;28;20383;-46
2023/07/09 06:15:18;;;;;;;;;;;31.00;46.20;;;26.34;51.66;96030.34;5012706;28;19983;-46
2023/07/09 06:17:44;;;;;;;;;;;31.30;45.80;;;26.58;49.38;96029.38;5012819;28;19921;-46
2023/07/09 06:20:11;;;;;;;;;;;31.60;45.50;;;26.87;49.17;96032.69;5010655;28;19924;-49
2023/07/09 06:22:37;;;;;;;;;;;31.90;45.10;;;27.18;48.72;96029.06;5009358;28;19974;-51
2023/07/09 06:25:03;;;;;;;;;;;32.10;44.70;;;27.42;48.94;96033.41;5010012;28;22750;-48
2023/07/09 06:27:28;;;;;;;;;;;32.50;44.40;;;27.63;47.72;96036.53;5014064;28;19913;-48
2023/07/09 06:29:54;;;;;;;;;;;32.80;44.00;;;27.89;45.69;96029.56;5013169;28;19916;-50
2023/07/09 06:32:20;;;;;;;;;;;33.10;43.60;;;28.15;46.43;96028.84;5007890;28;19909;-49
2023/07/09 06:34:46;;;;;;;;;;;33.30;43.10;;;28.28;44.69;96026.69;5013025;28;20440;-53
2023/07/09 06:37:11;;;;;;;;;;;33.50;42.70;;;28.28;44.46;96021.19;5006554;28;20055;-49
2023/07/09 06:39:37;;;;;;;;;;;33.70;42.40;;;28.47;44.20;96029.34;5010121;28;19916;-46
2023/07/09 06:42:03;;;;;;;;;;;33.90;42.00;;;28.68;43.57;96030.81;5011060;28;19909;-47
2023/07/09 06:44:29;;;;;;;;;;;34.20;41.70;;;28.90;42.82;96026.41;5009394;28;20166;-52
2023/07/09 06:46:55;;;;;;;;;;;34.40;41.40;;;29.05;43.08;96030.91;5007034;28;20466;-50
2023/07/09 06:49:20;;;;;;;;;;;34.60;41.00;;;29.07;42.33;96027.78;5009903;28;19950;-50
2023/07/09 06:51:46;;;;;;;;;;;34.80;40.70;;;29.28;41.34;96034.31;5004468;28;20307;-49
2023/07/09 06:54:15;;;;;;;;;;;35.00;40.30;;;29.55;41.58;96025.97;5005299;28;20270;-46
2023/07/09 06:56:41;;;;;;;;;;;35.20;39.90;;;29.52;40.56;96035.75;5008663;28;20007;-46
2023/07/09 06:59:07;;;;;;;;;;;35.40;39.70;;;29.71;40.62;96034.81;5011652;28;19913;-50
2023/07/09 07:01:33;;;;;;;;;;;35.60;39.40;;;29.86;40.65;96030.22;5010350;28;19913;-49
2023/07/09 07:03:58;;;;;;;;;;;35.80;39.10;;;29.87;41.45;96033.78;5013450;28;19945;-46
2023/07/09 07:06:24;;;;;;;;;;;36.00;38.80;;;30.08;40.93;96033.91;5007057;28;19913;-47
2023/07/09 07:08:50;;;;;;;;;;;36.10;38.50;;;30.30;40.17;96028.63;5007702;28;20383;-47
2023/07/09 07:11:16;;;;;;;;;;;36.20;38.90;;;30.45;39.76;96032.25;5011941;28;19956;-48
2023/07/09 07:13:46;;;;;;;;;;;36.40;38.10;;;30.63;39.76;96027.66;5011654;28;19909;-51
2023/07/09 07:16:12;;;;;;;;;;;36.50;37.80;;;30.86;39.04;96030.94;5010811;28;20003;-46
2023/07/09 07:18:39;;;;;;;;;;;36.70;37.60;;;31.09;39.08;96021.63;5008779;28;20327;-50
2023/07/09 07:21:06;;;;;;;;;;;36.80;37.30;;;31.16;38.18;96018.13;5006691;28;19913;-48
2023/07/09 07:23:32;;;;;;;;;;;37.00;37.20;;;31.39;38.59;96013.09;5013650;28;19908;-52
2023/07/09 07:25:58;;;;;;;;;;;37.10;36.90;;;31.51;38.79;96009.97;5007894;28;19909;-48
2023/07/09 07:28:24;;;;;;;;;;;37.40;36.80;;;31.65;37.63;96011.19;5006423;28;19909;-51
2023/07/09 07:31:10;;;;;;;;;;;37.60;36.50;;;31.84;37.44;96012.78;5030125;23;19927;-48
2023/07/09 07:33:41;;;;;;;;;;;37.90;36.30;;;32.12;37.55;96017.53;5019018;28;19951;-49
2023/07/09 07:36:09;;;;;;;;;;;38.10;36.00;;;32.36;35.73;96004.91;5016407;28;19920;-46
2023/07/09 07:38:34;;;;;;;;;;;38.30;35.70;;;32.63;35.86;96002.53;5019994;28;20023;-48
2023/07/09 07:41:02;;;;;;;;;;;38.50;35.30;;;32.75;34.96;95998.53;5021882;28;20019;-45
2023/07/09 07:43:28;;;;;;;;;;;38.80;35.10;;;32.98;35.02;96003.63;5032870;28;19912;-48
2023/07/09 07:45:54;;;;;;;;;;;39.00;34.90;;;33.03;34.39;96001.25;5031451;28;20186;-46
2023/07/09 07:48:19;;;;;;;;;;;39.20;34.50;;;33.23;34.67;95993.25;5028974;28;19945;-46
2023/07/09 07:50:47;;;;;;;;;;;39.40;34.20;;;33.47;35.40;95994.31;5035471;28;20355;-46
2023/07/09 07:53:16;;;;;;;;;;;39.50;33.90;;;33.73;33.61;95994.94;5031969;28;19912;-50
2023/07/09 07:55:42;;;;;;;;;;;39.80;33.70;;;33.68;33.69;95987.09;5024197;28;19913;-49
2023/07/09 07:58:13;;;;;;;;;;;39.90;33.20;;;33.97;32.83;95993.97;5030036;28;20602;-48
2023/07/09 08:00:40;;;;;;;;;;;40.00;33.10;;;34.19;32.58;95993.81;5030886;28;19908;-46
2023/07/09 08:03:06;;;;;;;;;;;40.00;32.80;;;34.37;34.31;95997.19;5034146;28;19919;-47
2023/07/09 08:05:32;;;;;;;;;;;40.10;32.60;;;34.60;33.28;95993.84;5033824;28;19958;-45
2023/07/09 08:07:57;;;;;;;;;;;40.20;32.50;;;35.00;32.57;96000.47;5030952;28;19916;-48
2023/07/09 08:10:23;;;;;;;;;;;40.40;32.50;;;35.20;32.56;95997.09;5025833;28;19912;-47
2023/07/09 08:12:49;;;;;;;;;;;40.60;32.40;;;35.35;32.19;95995.72;5036737;28;20263;-46
2023/07/09 08:15:14;;;;;;;;;;;40.80;32.20;;;35.38;31.85;95996.84;5028027;28;20367;-47
2023/07/09 08:17:40;;;;;;;;;;;41.10;32.00;;;35.49;31.49;95991.94;5024637;28;19920;-50
2023/07/09 08:20:07;;;;;;;;;;;41.30;31.80;;;35.58;31.47;95997.00;5031680;28;20265;-48
2023/07/09 08:22:32;;;;;;;;;;;41.50;31.60;;;35.63;31.96;95988.22;5028063;28;19917;-45
2023/07/09 08:24:58;;;;;;;;;;;41.80;31.40;;;35.88;32.00;95985.06;5032939;28;19927;-50
2023/07/09 08:27:24;;;;;;;;;;;41.90;31.20;;;36.13;31.99;95982.69;5029709;28;19939;-51
2023/07/09 08:29:50;;;;;;;;;;;42.00;31.00;;;36.10;32.60;95988.28;5032677;28;20386;-50
2023/07/09 08:32:15;;;;;;;;;;;42.10;30.70;;;36.06;32.36;95984.78;5032222;28;19919;-47
2023/07/09 08:34:42;;;;;;;;;;;42.20;30.40;;;36.10;31.83;95985.50;5034200;28;19943;-46
2023/07/09 08:37:08;;;;;;;;;;;42.10;30.20;;;36.11;32.07;95987.09;5029754;28;19912;-45
2023/07/09 08:39:35;;;;;;;;;;;42.10;30.10;;;36.05;32.75;95989.56;5027804;28;20386;-46
2023/07/09 08:42:13;;;;;;;;;;;42.10;30.10;;;35.80;32.54;95989.16;5024181;28;19917;-48
2023/07/09 08:44:53;;;;;;;;;;;42.10;30.00;;;35.81;33.01;95997.03;5032463;28;20010;-50
2023/07/09 08:47:51;;;;;;;;;;;42.10;30.00;;;36.32;33.17;95999.78;5031602;28;19992;-46
2023/07/09 08:50:38;;;;;;;;;;;42.20;30.00;;;36.70;31.43;96000.31;5025094;28;20280;-47
2023/07/09 08:53:09;;;;;;;;;;;42.40;30.00;;;36.84;31.22;95988.16;5027568;28;20371;-46
2023/07/09 08:55:40;;;;;;;;;;;42.50;30.40;;;36.83;31.28;95987.38;5014528;28;19913;-48
2023/07/09 08:58:25;;;;;;;;;;;42.70;29.80;;;36.86;31.13;95988.50;5028263;28;19913;-48
2023/07/09 09:01:05;;;;;;;;;;;42.90;29.70;;;37.14;30.65;95986.38;5035531;28;19951;-48
2023/07/09 09:03:47;;;;;;;;;;;43.00;29.50;;;37.18;30.07;95979.53;5030063;28;20440;-47
2023/07/09 09:06:19;;;;;;;;;;;43.10;29.40;;;36.74;30.28;95991.91;5033324;28;19959;-48
2023/07/09 09:09:12;;;;;;;;;;;43.10;29.20;;;36.82;31.51;95996.91;5035552;28;20239;-51
2023/07/09 09:11:45;;;;;;;;;;;43.10;29.10;;;36.85;30.70;95994.47;5032691;28;19909;-46
2023/07/09 09:14:33;;;;;;;;;;;43.10;29.00;;;36.96;30.22;95993.06;5051234;28;19915;-48
2023/07/09 09:17:01;;;;;;;;;;;43.20;28.90;;;37.25;30.56;95998.03;5030716;28;19912;-46
2023/07/09 09:19:38;;;;;;;;;;;43.20;28.90;;;37.26;31.08;95997.63;5026076;28;19929;-47
2023/07/09 09:22:21;;;;;;;;;;;43.30;28.90;;;37.65;30.14;95989.66;5034257;28;19994;-49
2023/07/09 09:25:15;;;;;;;;;;;43.50;28.80;;;37.74;29.34;95993.38;5031313;28;19915;-48
2023/07/09 09:27:42;;;;;;;;;;;43.70;28.80;;;38.12;30.40;95994.91;5034697;28;19908;-47
2023/07/09 09:30:23;;;;;;;;;;;43.80;28.60;;;38.17;29.31;95994.34;5034687;28;19961;-46
2023/07/09 09:33:01;;;;;;;;;;;44.00;28.60;;;38.10;28.86;95989.75;5028886;28;19915;-50
2023/07/09 09:35:37;;;;;;;;;;;44.20;28.50;;;38.38;28.60;95998.63;5029636;28;19946;-49
2023/07/09 09:38:17;;;;;;;;;;;44.40;28.40;;;38.59;28.54;95989.72;5035526;28;19912;-51
2023/07/09 09:40:43;;;;;;;;;;;44.50;28.20;;;38.74;27.34;95989.34;5032932;28;19908;-48
2023/07/09 09:43:19;;;;;;;;;;;44.60;28.00;;;39.08;27.17;95994.34;5034069;28;19908;-47
2023/07/09 09:45:49;;;;;;;;;;;44.60;27.90;;;39.17;27.53;95988.91;5027195;28;19909;-49
2023/07/09 09:48:38;;;;;;;;;;;44.70;27.70;;;39.02;27.26;95985.78;5033042;28;19965;-49
2023/07/09 09:51:05;;;;;;;;;;;44.80;27.60;;;39.39;26.92;95979.94;5037653;28;20064;-51
2023/07/09 09:53:40;;;;;;;;;;;44.70;27.40;;;39.44;27.44;95984.97;5033131;28;19999;-48
2023/07/09 09:56:18;;;;;;;;;;;44.80;27.30;;;39.57;26.42;95991.31;5032185;28;19908;-46
2023/07/09 09:58:44;;;;;;;;;;;44.80;27.70;;;39.66;26.40;95996.22;5037046;28;19999;-52
2023/07/09 10:01:18;;;;;;;;;;;44.80;27.70;;;39.92;26.35;95997.00;5033516;28;19966;-47
2023/07/09 10:03:52;;;;;;;;;;;44.90;27.20;;;40.28;25.66;95990.31;5029559;28;19912;-49
2023/07/09 10:06:25;;;;;;;;;;;45.00;27.10;;;40.04;24.33;95987.06;5032498;28;19954;-49
2023/07/09 10:09:09;;;;;;;;;;;45.20;27.00;;;39.48;25.84;95991.97;5028129;28;20089;-47
2023/07/09 10:11:49;;;;;;;;;;;45.30;26.90;;;39.61;25.38;95994.75;5034495;28;20340;-49
2023/07/09 10:14:41;;;;;;;;;;;45.40;26.80;;;39.67;25.14;95987.41;5036707;28;19908;-49
2023/07/09 10:17:17;;;;;;;;;;;45.60;26.70;;;38.87;25.53;95970.69;5039718;28;19912;-47
2023/07/09 10:20:22;;;;;;;;;;;45.80;26.60;;;38.99;24.82;95975.53;5032113;28;19908;-46
2023/07/09 10:22:55;;;;;;;;;;;45.80;26.30;;;39.31;23.59;95976.59;5034318;28;19920;-49
2023/07/09 10:25:46;;;;;;;;;;;45.80;26.20;;;39.52;24.14;95975.16;5034090;28;20366;-49
2023/07/09 10:28:54;;;;;;;;;;;45.80;26.10;;;39.90;23.59;95977.97;5032278;28;20015;-48
2023/07/09 10:31:26;;;;;;;;;;;46.00;26.30;;;40.11;23.57;95970.09;5027691;28;19928;-49
2023/07/09 10:34:27;;;;;;;;;;;46.10;26.00;;;40.45;22.82;95969.34;4927942;28;24485;-47
2023/07/09 10:37:25;;;;;;;;;;;46.30;25.80;;;40.41;22.60;95971.50;4964450;28;19967;-47
2023/07/09 10:39:58;;;;;;;;;;;46.50;25.60;;;40.38;23.38;95969.63;4975625;28;19948;-52
2023/07/09 10:42:28;;;;;;;;;;;46.60;25.40;;;40.40;23.52;95959.56;4990287;28;20301;-50
2023/07/09 10:45:25;;;;;;;;;;;46.70;25.40;;;40.62;23.73;95958.84;4990333;28;19956;-50
2023/07/09 10:48:01;;;;;;;;;;;46.80;25.30;;;40.82;23.99;95950.13;4992039;28;20008;-47
2023/07/09 10:50:43;;;;;;;;;;;47.00;25.80;;;41.38;23.02;95943.66;4988281;28;19931;-50
2023/07/09 10:53:43;;;;;;;;;;;47.20;25.10;;;41.33;22.97;95939.41;4988016;28;19935;-47
2023/07/09 10:56:17;;;;;;;;;;;47.20;25.00;;;41.41;23.19;95945.53;4991186;28;19909;-47
2023/07/09 10:59:07;;;;;;;;;;;47.30;24.90;;;41.65;21.67;95942.22;4988082;28;20462;-48
2023/07/09 11:01:45;;;;;;;;;;;47.40;24.70;;;41.70;21.92;95936.03;4993903;28;20395;-49
2023/07/09 11:04:38;;;;;;;;;;;47.50;24.60;;;41.54;21.82;95932.25;4989544;28;19909;-47
2023/07/09 11:07:12;;;;;;;;;;;47.50;24.50;;;41.48;20.98;95939.66;4991931;28;19936;-48
2023/07/09 11:09:49;;;;;;;;;;;47.50;24.30;;;40.92;21.71;95937.78;4982083;28;19925;-49
2023/07/09 11:12:28;;;;;;;;;;;47.40;24.10;;;40.61;21.43;95929.34;4991737;28;20052;-47
2023/07/09 11:15:22;;;;;;;;;;;47.40;24.10;;;40.31;21.47;95931.59;4966897;28;30170;-48
2023/07/09 11:17:48;;;;;;;;;;;47.30;23.90;;;40.33;23.11;95939.50;5009660;28;19927;-47
2023/07/09 11:20:35;;;;;;;;;;;47.20;23.90;;;39.88;21.79;95926.66;5004275;28;19917;-51
2023/07/09 11:23:25;;;;;;;;;;;47.30;23.90;;;40.03;21.87;95924.19;5008488;28;19970;-50
2023/07/09 11:26:13;;;;;;;;;;;47.20;23.80;;;40.34;21.39;95932.69;5018864;28;20371;-49
2023/07/09 11:28:46;;;;;;;;;;;47.30;23.70;;;40.47;20.90;95931.41;5011969;28;19913;-46
2023/07/09 11:31:31;;;;;;;;;;;47.30;23.60;;;40.66;20.72;95926.75;5010384;28;20080;-50
2023/07/09 11:34:17;;;;;;;;;;;47.30;23.50;;;40.98;20.17;95930.38;5014345;28;19932;-49